sensor_id;sensor_type;location;lat;lon;timestamp;P1;durP1;ratioP1;P2;durP2;ratioP2
51467;SDS011;37545;45.302;-122.946;2022-08-18T00:00:35;5.32;;;1.77;;
51467;SDS011;37545;45.302;-122.946;2022-08-18T00:03:05;15.77;;;2.33;;
51467;SDS011;37545;45.302;-122.946;2022-08-18T00:05:36;8.77;;;2.00;;
51467;SDS011;37545;45.302;-122.946;2022-08-18T00:08:05;11.65;;;2.03;;
51467;SDS011;37545;45.302;-122.946;2022-08-18T00:10:35;10.57;;;2.00;;
51467;SDS011;37545;45.302;-122.946;2022-08-18T00:13:06;9.93;;;2.03;;
51467;SDS011;37545;45.302;-122.946;2022-08-18T00:15:49;7.45;;;1.85;;
51467;SDS011;37545;45.302;-122.946;2022-08-18T00:18:17;17.35;;;2.95;;
51467;SDS011;37545;45.302;-122.946;2022-08-18T00:20:46;8.27;;;1.85;;
51467;SDS011;37545;45.302;-122.946;2022-08-18T00:23:14;11.27;;;2.05;;
51467;SDS011;37545;45.302;-122.946;2022-08-18T00:25:45;6.18;;;1.85;;
51467;SDS011;37545;45.302;-122.946;2022-08-18T00:28:14;7.07;;;1.65;;
51467;SDS011;37545;45.302;-122.946;2022-08-18T00:30:43;7.45;;;2.85;;
51467;SDS011;37545;45.302;-122.946;2022-08-18T00:33:12;2.72;;;1.63;;
51467;SDS011;37545;45.302;-122.946;2022-08-18T00:35:40;5.85;;;1.73;;
51467;SDS011;37545;45.302;-122.946;2022-08-18T00:38:09;7.65;;;1.60;;
51467;SDS011;37545;45.302;-122.946;2022-08-18T00:40:39;4.57;;;1.98;;
51467;SDS011;37545;45.302;-122.946;2022-08-18T00:43:14;5.78;;;2.53;;
51467;SDS011;37545;45.302;-122.946;2022-08-18T00:45:46;8.40;;;3.03;;
51467;SDS011;37545;45.302;-122.946;2022-08-18T00:48:15;9.35;;;2.13;;
51467;SDS011;37545;45.302;-122.946;2022-08-18T00:50:44;6.55;;;2.63;;
51467;SDS011;37545;45.302;-122.946;2022-08-18T00:53:17;13.80;;;3.65;;
51467;SDS011;37545;45.302;-122.946;2022-08-18T00:55:52;9.43;;;2.53;;
51467;SDS011;37545;45.302;-122.946;2022-08-18T00:58:23;7.13;;;2.45;;
51467;SDS011;37545;45.302;-122.946;2022-08-18T01:00:56;8.05;;;2.50;;
51467;SDS011;37545;45.302;-122.946;2022-08-18T01:03:30;9.07;;;2.40;;
51467;SDS011;37545;45.302;-122.946;2022-08-18T01:06:05;10.85;;;2.20;;
51467;SDS011;37545;45.302;-122.946;2022-08-18T01:08:41;5.47;;;2.20;;
51467;SDS011;37545;45.302;-122.946;2022-08-18T01:11:10;5.10;;;1.98;;
51467;SDS011;37545;45.302;-122.946;2022-08-18T01:13:40;5.18;;;1.80;;
51467;SDS011;37545;45.302;-122.946;2022-08-18T01:16:09;3.58;;;1.90;;
51467;SDS011;37545;45.302;-122.946;2022-08-18T01:18:54;7.13;;;1.90;;
51467;SDS011;37545;45.302;-122.946;2022-08-18T01:21:41;11.63;;;1.95;;
51467;SDS011;37545;45.302;-122.946;2022-08-18T01:24:21;5.45;;;1.60;;
51467;SDS011;37545;45.302;-122.946;2022-08-18T01:27:12;6.93;;;1.73;;
51467;SDS011;37545;45.302;-122.946;2022-08-18T01:29:42;3.45;;;1.77;;
51467;SDS011;37545;45.302;-122.946;2022-08-18T01:32:13;5.70;;;1.80;;
51467;SDS011;37545;45.302;-122.946;2022-08-18T01:34:44;4.78;;;1.70;;
51467;SDS011;37545;45.302;-122.946;2022-08-18T01:37:15;3.60;;;1.67;;
51467;SDS011;37545;45.302;-122.946;2022-08-18T01:39:46;4.43;;;1.55;;
51467;SDS011;37545;45.302;-122.946;2022-08-18T01:42:15;9.67;;;1.70;;
51467;SDS011;37545;45.302;-122.946;2022-08-18T01:44:44;7.15;;;1.70;;
51467;SDS011;37545;45.302;-122.946;2022-08-18T01:47:16;3.35;;;1.35;;
51467;SDS011;37545;45.302;-122.946;2022-08-18T01:49:45;6.45;;;1.92;;
51467;SDS011;37545;45.302;-122.946;2022-08-18T01:52:14;5.50;;;1.90;;
51467;SDS011;37545;45.302;-122.946;2022-08-18T01:54:47;5.55;;;1.60;;
51467;SDS011;37545;45.302;-122.946;2022-08-18T01:57:16;7.75;;;1.58;;
51467;SDS011;37545;45.302;-122.946;2022-08-18T01:59:46;8.65;;;1.80;;
51467;SDS011;37545;45.302;-122.946;2022-08-18T02:02:15;5.78;;;1.65;;
51467;SDS011;37545;45.302;-122.946;2022-08-18T02:04:54;4.18;;;1.30;;
51467;SDS011;37545;45.302;-122.946;2022-08-18T02:07:28;4.30;;;1.27;;
51467;SDS011;37545;45.302;-122.946;2022-08-18T02:09:58;6.18;;;1.80;;
51467;SDS011;37545;45.302;-122.946;2022-08-18T02:12:27;5.68;;;1.80;;
51467;SDS011;37545;45.302;-122.946;2022-08-18T02:14:55;5.18;;;1.65;;
51467;SDS011;37545;45.302;-122.946;2022-08-18T02:17:24;7.47;;;1.52;;
51467;SDS011;37545;45.302;-122.946;2022-08-18T02:19:52;6.75;;;1.98;;
51467;SDS011;37545;45.302;-122.946;2022-08-18T02:22:21;5.88;;;1.70;;
51467;SDS011;37545;45.302;-122.946;2022-08-18T02:24:49;7.78;;;1.63;;
51467;SDS011;37545;45.302;-122.946;2022-08-18T02:27:19;6.18;;;1.48;;
51467;SDS011;37545;45.302;-122.946;2022-08-18T02:29:48;5.57;;;1.80;;
51467;SDS011;37545;45.302;-122.946;2022-08-18T02:32:16;8.65;;;1.70;;
51467;SDS011;37545;45.302;-122.946;2022-08-18T02:34:45;4.15;;;1.20;;
51467;SDS011;37545;45.302;-122.946;2022-08-18T02:37:13;5.30;;;1.75;;
51467;SDS011;37545;45.302;-122.946;2022-08-18T02:39:42;11.63;;;2.30;;
51467;SDS011;37545;45.302;-122.946;2022-08-18T02:42:11;6.05;;;2.67;;
51467;SDS011;37545;45.302;-122.946;2022-08-18T02:44:41;9.13;;;2.28;;
51467;SDS011;37545;45.302;-122.946;2022-08-18T02:47:09;5.15;;;1.88;;
51467;SDS011;37545;45.302;-122.946;2022-08-18T02:49:38;13.27;;;2.83;;
51467;SDS011;37545;45.302;-122.946;2022-08-18T02:52:06;6.28;;;2.25;;
51467;SDS011;37545;45.302;-122.946;2022-08-18T02:54:36;10.25;;;2.10;;
51467;SDS011;37545;45.302;-122.946;2022-08-18T02:57:05;7.03;;;1.77;;
51467;SDS011;37545;45.302;-122.946;2022-08-18T02:59:35;6.35;;;2.05;;
51467;SDS011;37545;45.302;-122.946;2022-08-18T03:02:07;3.15;;;1.92;;
51467;SDS011;37545;45.302;-122.946;2022-08-18T03:04:36;7.22;;;1.80;;
51467;SDS011;37545;45.302;-122.946;2022-08-18T03:07:06;10.82;;;2.05;;
51467;SDS011;37545;45.302;-122.946;2022-08-18T03:12:04;5.20;;;2.10;;
51467;SDS011;37545;45.302;-122.946;2022-08-18T03:14:33;4.03;;;1.88;;
51467;SDS011;37545;45.302;-122.946;2022-08-18T03:17:05;6.10;;;1.83;;
51467;SDS011;37545;45.302;-122.946;2022-08-18T03:19:35;5.75;;;2.00;;
51467;SDS011;37545;45.302;-122.946;2022-08-18T03:22:06;8.70;;;1.98;;
51467;SDS011;37545;45.302;-122.946;2022-08-18T03:24:35;12.10;;;2.10;;
51467;SDS011;37545;45.302;-122.946;2022-08-18T03:27:04;4.72;;;2.28;;
51467;SDS011;37545;45.302;-122.946;2022-08-18T03:29:33;7.97;;;2.10;;
51467;SDS011;37545;45.302;-122.946;2022-08-18T03:32:03;7.20;;;2.33;;
51467;SDS011;37545;45.302;-122.946;2022-08-18T03:34:34;7.90;;;2.00;;
51467;SDS011;37545;45.302;-122.946;2022-08-18T03:37:03;8.50;;;2.20;;
51467;SDS011;37545;45.302;-122.946;2022-08-18T03:39:31;6.75;;;1.80;;
51467;SDS011;37545;45.302;-122.946;2022-08-18T03:42:00;2.72;;;1.80;;
51467;SDS011;37545;45.302;-122.946;2022-08-18T03:44:29;11.65;;;1.88;;
51467;SDS011;37545;45.302;-122.946;2022-08-18T03:47:01;11.10;;;2.25;;
51467;SDS011;37545;45.302;-122.946;2022-08-18T03:49:30;5.68;;;2.08;;
51467;SDS011;37545;45.302;-122.946;2022-08-18T03:52:00;5.68;;;2.05;;
51467;SDS011;37545;45.302;-122.946;2022-08-18T03:54:30;8.40;;;2.17;;
51467;SDS011;37545;45.302;-122.946;2022-08-18T03:56:58;4.13;;;1.83;;
51467;SDS011;37545;45.302;-122.946;2022-08-18T03:59:27;4.88;;;2.13;;
51467;SDS011;37545;45.302;-122.946;2022-08-18T04:01:57;5.43;;;2.00;;
51467;SDS011;37545;45.302;-122.946;2022-08-18T04:04:26;9.25;;;2.20;;
51467;SDS011;37545;45.302;-122.946;2022-08-18T04:06:56;9.00;;;1.77;;
51467;SDS011;37545;45.302;-122.946;2022-08-18T04:09:30;17.23;;;2.30;;
51467;SDS011;37545;45.302;-122.946;2022-08-18T04:12:02;12.52;;;2.38;;
51467;SDS011;37545;45.302;-122.946;2022-08-18T04:14:37;8.35;;;2.47;;
51467;SDS011;37545;45.302;-122.946;2022-08-18T04:17:08;12.93;;;2.33;;
51467;SDS011;37545;45.302;-122.946;2022-08-18T04:19:36;9.73;;;2.22;;
51467;SDS011;37545;45.302;-122.946;2022-08-18T04:22:05;7.47;;;2.63;;
51467;SDS011;37545;45.302;-122.946;2022-08-18T04:24:35;8.55;;;2.33;;
51467;SDS011;37545;45.302;-122.946;2022-08-18T04:27:04;8.68;;;2.20;;
51467;SDS011;37545;45.302;-122.946;2022-08-18T04:29:34;4.53;;;2.15;;
51467;SDS011;37545;45.302;-122.946;2022-08-18T04:32:10;9.77;;;2.10;;
51467;SDS011;37545;45.302;-122.946;2022-08-18T04:34:39;7.80;;;2.10;;
51467;SDS011;37545;45.302;-122.946;2022-08-18T04:37:07;6.72;;;2.35;;
51467;SDS011;37545;45.302;-122.946;2022-08-18T04:39:38;3.33;;;2.35;;
51467;SDS011;37545;45.302;-122.946;2022-08-18T04:42:06;4.82;;;2.28;;
51467;SDS011;37545;45.302;-122.946;2022-08-18T04:44:35;6.18;;;2.22;;
51467;SDS011;37545;45.302;-122.946;2022-08-18T04:47:04;8.40;;;2.30;;
51467;SDS011;37545;45.302;-122.946;2022-08-18T04:49:34;8.98;;;2.30;;
51467;SDS011;37545;45.302;-122.946;2022-08-18T04:52:03;10.45;;;2.22;;
51467;SDS011;37545;45.302;-122.946;2022-08-18T04:54:51;7.70;;;2.78;;
51467;SDS011;37545;45.302;-122.946;2022-08-18T04:57:19;9.20;;;2.85;;
51467;SDS011;37545;45.302;-122.946;2022-08-18T04:59:50;4.82;;;2.08;;
51467;SDS011;37545;45.302;-122.946;2022-08-18T05:02:19;4.88;;;2.55;;
51467;SDS011;37545;45.302;-122.946;2022-08-18T05:04:48;5.28;;;2.72;;
51467;SDS011;37545;45.302;-122.946;2022-08-18T05:07:18;3.50;;;2.17;;
51467;SDS011;37545;45.302;-122.946;2022-08-18T05:09:48;7.75;;;2.60;;
51467;SDS011;37545;45.302;-122.946;2022-08-18T05:12:19;4.80;;;2.23;;
51467;SDS011;37545;45.302;-122.946;2022-08-18T05:14:48;6.65;;;2.65;;
51467;SDS011;37545;45.302;-122.946;2022-08-18T05:17:18;4.07;;;2.65;;
51467;SDS011;37545;45.302;-122.946;2022-08-18T05:19:47;5.07;;;2.50;;
51467;SDS011;37545;45.302;-122.946;2022-08-18T05:22:16;8.07;;;2.47;;
51467;SDS011;37545;45.302;-122.946;2022-08-18T05:24:45;8.38;;;2.60;;
51467;SDS011;37545;45.302;-122.946;2022-08-18T05:27:15;7.00;;;2.50;;
51467;SDS011;37545;45.302;-122.946;2022-08-18T05:29:44;10.82;;;2.75;;
51467;SDS011;37545;45.302;-122.946;2022-08-18T05:32:13;3.88;;;2.15;;
51467;SDS011;37545;45.302;-122.946;2022-08-18T05:34:42;6.70;;;2.40;;
51467;SDS011;37545;45.302;-122.946;2022-08-18T05:37:16;6.30;;;2.47;;
51467;SDS011;37545;45.302;-122.946;2022-08-18T05:39:57;5.15;;;2.47;;
51467;SDS011;37545;45.302;-122.946;2022-08-18T05:42:35;5.20;;;2.75;;
51467;SDS011;37545;45.302;-122.946;2022-08-18T05:45:06;7.07;;;2.63;;
51467;SDS011;37545;45.302;-122.946;2022-08-18T05:47:37;6.20;;;2.80;;
51467;SDS011;37545;45.302;-122.946;2022-08-18T05:50:07;8.20;;;2.97;;
51467;SDS011;37545;45.302;-122.946;2022-08-18T05:52:37;5.57;;;2.25;;
51467;SDS011;37545;45.302;-122.946;2022-08-18T05:55:11;8.63;;;2.78;;
51467;SDS011;37545;45.302;-122.946;2022-08-18T05:58:03;5.82;;;2.28;;
51467;SDS011;37545;45.302;-122.946;2022-08-18T06:00:37;7.50;;;3.05;;
51467;SDS011;37545;45.302;-122.946;2022-08-18T06:03:08;4.13;;;2.88;;
51467;SDS011;37545;45.302;-122.946;2022-08-18T06:05:51;11.32;;;2.88;;
51467;SDS011;37545;45.302;-122.946;2022-08-18T06:08:23;9.35;;;3.38;;
51467;SDS011;37545;45.302;-122.946;2022-08-18T06:10:56;6.90;;;2.80;;
51467;SDS011;37545;45.302;-122.946;2022-08-18T06:13:26;10.38;;;2.60;;
51467;SDS011;37545;45.302;-122.946;2022-08-18T06:16:08;5.65;;;3.08;;
51467;SDS011;37545;45.302;-122.946;2022-08-18T06:18:42;10.05;;;3.35;;
51467;SDS011;37545;45.302;-122.946;2022-08-18T06:21:20;10.88;;;2.65;;
51467;SDS011;37545;45.302;-122.946;2022-08-18T06:24:02;5.00;;;2.80;;
51467;SDS011;37545;45.302;-122.946;2022-08-18T06:26:39;8.38;;;2.70;;
51467;SDS011;37545;45.302;-122.946;2022-08-18T06:29:19;6.93;;;2.85;;
51467;SDS011;37545;45.302;-122.946;2022-08-18T06:32:01;7.45;;;3.03;;
51467;SDS011;37545;45.302;-122.946;2022-08-18T06:34:54;6.65;;;2.72;;
51467;SDS011;37545;45.302;-122.946;2022-08-18T06:37:32;9.13;;;3.03;;
51467;SDS011;37545;45.302;-122.946;2022-08-18T06:40:24;3.65;;;2.78;;
51467;SDS011;37545;45.302;-122.946;2022-08-18T06:42:53;7.93;;;3.03;;
51467;SDS011;37545;45.302;-122.946;2022-08-18T06:45:24;7.55;;;2.92;;
51467;SDS011;37545;45.302;-122.946;2022-08-18T06:47:59;6.53;;;2.83;;
51467;SDS011;37545;45.302;-122.946;2022-08-18T06:50:35;7.55;;;2.63;;
51467;SDS011;37545;45.302;-122.946;2022-08-18T06:53:08;6.82;;;2.60;;
51467;SDS011;37545;45.302;-122.946;2022-08-18T06:55:37;6.18;;;2.47;;
51467;SDS011;37545;45.302;-122.946;2022-08-18T06:58:19;6.60;;;2.92;;
51467;SDS011;37545;45.302;-122.946;2022-08-18T07:00:57;9.10;;;2.58;;
51467;SDS011;37545;45.302;-122.946;2022-08-18T07:03:41;5.55;;;2.60;;
51467;SDS011;37545;45.302;-122.946;2022-08-18T07:06:22;7.97;;;2.70;;
51467;SDS011;37545;45.302;-122.946;2022-08-18T07:11:58;9.18;;;2.50;;
51467;SDS011;37545;45.302;-122.946;2022-08-18T07:14:33;5.13;;;2.08;;
51467;SDS011;37545;45.302;-122.946;2022-08-18T07:17:12;6.95;;;2.88;;
51467;SDS011;37545;45.302;-122.946;2022-08-18T07:19:53;12.82;;;2.60;;
51467;SDS011;37545;45.302;-122.946;2022-08-18T07:22:26;11.75;;;3.25;;
51467;SDS011;37545;45.302;-122.946;2022-08-18T07:24:55;7.38;;;2.60;;
51467;SDS011;37545;45.302;-122.946;2022-08-18T07:27:41;11.25;;;2.85;;
51467;SDS011;37545;45.302;-122.946;2022-08-18T07:30:23;8.27;;;2.72;;
51467;SDS011;37545;45.302;-122.946;2022-08-18T07:32:59;10.57;;;2.67;;
51467;SDS011;37545;45.302;-122.946;2022-08-18T07:35:37;8.00;;;2.42;;
51467;SDS011;37545;45.302;-122.946;2022-08-18T07:38:13;7.70;;;2.78;;
51467;SDS011;37545;45.302;-122.946;2022-08-18T07:40:47;3.85;;;2.50;;
51467;SDS011;37545;45.302;-122.946;2022-08-18T07:43:23;7.22;;;2.60;;
51467;SDS011;37545;45.302;-122.946;2022-08-18T07:45:56;4.78;;;2.22;;
51467;SDS011;37545;45.302;-122.946;2022-08-18T07:48:35;6.35;;;2.30;;
51467;SDS011;37545;45.302;-122.946;2022-08-18T07:51:06;6.63;;;2.58;;
51467;SDS011;37545;45.302;-122.946;2022-08-18T07:53:45;5.78;;;2.38;;
51467;SDS011;37545;45.302;-122.946;2022-08-18T07:56:20;5.50;;;2.28;;
51467;SDS011;37545;45.302;-122.946;2022-08-18T07:58:58;9.50;;;2.40;;
51467;SDS011;37545;45.302;-122.946;2022-08-18T08:01:32;15.52;;;2.53;;
51467;SDS011;37545;45.302;-122.946;2022-08-18T08:04:09;8.35;;;2.58;;
51467;SDS011;37545;45.302;-122.946;2022-08-18T08:06:42;7.38;;;2.65;;
51467;SDS011;37545;45.302;-122.946;2022-08-18T08:09:16;6.40;;;2.83;;
51467;SDS011;37545;45.302;-122.946;2022-08-18T08:11:51;4.80;;;2.53;;
51467;SDS011;37545;45.302;-122.946;2022-08-18T08:14:28;7.38;;;3.22;;
51467;SDS011;37545;45.302;-122.946;2022-08-18T08:17:09;7.63;;;3.03;;
51467;SDS011;37545;45.302;-122.946;2022-08-18T08:19:52;7.22;;;2.97;;
51467;SDS011;37545;45.302;-122.946;2022-08-18T08:22:37;6.25;;;2.83;;
51467;SDS011;37545;45.302;-122.946;2022-08-18T08:25:12;13.10;;;2.97;;
51467;SDS011;37545;45.302;-122.946;2022-08-18T08:27:49;9.35;;;2.80;;
51467;SDS011;37545;45.302;-122.946;2022-08-18T08:30:32;9.35;;;2.72;;
51467;SDS011;37545;45.302;-122.946;2022-08-18T08:33:09;9.38;;;2.70;;
51467;SDS011;37545;45.302;-122.946;2022-08-18T08:35:48;6.10;;;2.80;;
51467;SDS011;37545;45.302;-122.946;2022-08-18T08:38:20;14.95;;;3.38;;
51467;SDS011;37545;45.302;-122.946;2022-08-18T08:40:56;8.82;;;2.90;;
51467;SDS011;37545;45.302;-122.946;2022-08-18T08:43:29;6.90;;;2.55;;
51467;SDS011;37545;45.302;-122.946;2022-08-18T08:46:03;5.63;;;2.22;;
51467;SDS011;37545;45.302;-122.946;2022-08-18T08:48:38;6.53;;;3.08;;
51467;SDS011;37545;45.302;-122.946;2022-08-18T08:51:23;11.80;;;3.33;;
51467;SDS011;37545;45.302;-122.946;2022-08-18T08:54:02;8.88;;;3.10;;
51467;SDS011;37545;45.302;-122.946;2022-08-18T08:56:39;13.35;;;3.13;;
51467;SDS011;37545;45.302;-122.946;2022-08-18T08:59:13;5.90;;;2.60;;
51467;SDS011;37545;45.302;-122.946;2022-08-18T09:01:45;9.88;;;3.13;;
51467;SDS011;37545;45.302;-122.946;2022-08-18T09:04:32;5.82;;;2.60;;
51467;SDS011;37545;45.302;-122.946;2022-08-18T09:07:14;6.55;;;2.70;;
51467;SDS011;37545;45.302;-122.946;2022-08-18T09:10:03;5.50;;;2.72;;
51467;SDS011;37545;45.302;-122.946;2022-08-18T09:12:48;6.95;;;2.70;;
51467;SDS011;37545;45.302;-122.946;2022-08-18T09:15:50;6.20;;;2.67;;
51467;SDS011;37545;45.302;-122.946;2022-08-18T09:18:35;8.52;;;2.72;;
51467;SDS011;37545;45.302;-122.946;2022-08-18T09:21:19;9.25;;;2.60;;
51467;SDS011;37545;45.302;-122.946;2022-08-18T09:24:06;6.25;;;2.80;;
51467;SDS011;37545;45.302;-122.946;2022-08-18T09:26:42;6.68;;;2.70;;
51467;SDS011;37545;45.302;-122.946;2022-08-18T09:29:17;8.00;;;3.10;;
51467;SDS011;37545;45.302;-122.946;2022-08-18T09:35:22;9.90;;;2.60;;
51467;SDS011;37545;45.302;-122.946;2022-08-18T09:38:10;8.15;;;3.25;;
51467;SDS011;37545;45.302;-122.946;2022-08-18T09:41:06;9.43;;;3.00;;
51467;SDS011;37545;45.302;-122.946;2022-08-18T09:43:57;7.63;;;2.47;;
51467;SDS011;37545;45.302;-122.946;2022-08-18T09:46:52;8.98;;;2.72;;
51467;SDS011;37545;45.302;-122.946;2022-08-18T09:55:50;8.23;;;2.88;;
51467;SDS011;37545;45.302;-122.946;2022-08-18T10:01:34;6.78;;;2.83;;
51467;SDS011;37545;45.302;-122.946;2022-08-18T10:07:12;8.07;;;2.60;;
51467;SDS011;37545;45.302;-122.946;2022-08-18T10:09:50;4.72;;;2.65;;
51467;SDS011;37545;45.302;-122.946;2022-08-18T10:12:39;5.38;;;2.53;;
51467;SDS011;37545;45.302;-122.946;2022-08-18T10:18:35;6.00;;;2.78;;
51467;SDS011;37545;45.302;-122.946;2022-08-18T10:21:15;6.18;;;2.65;;
51467;SDS011;37545;45.302;-122.946;2022-08-18T10:23:50;5.95;;;3.13;;
51467;SDS011;37545;45.302;-122.946;2022-08-18T10:29:42;6.15;;;2.45;;
51467;SDS011;37545;45.302;-122.946;2022-08-18T10:32:34;10.93;;;3.28;;
51467;SDS011;37545;45.302;-122.946;2022-08-18T10:41:05;7.22;;;3.10;;
51467;SDS011;37545;45.302;-122.946;2022-08-18T10:43:47;11.45;;;3.13;;
51467;SDS011;37545;45.302;-122.946;2022-08-18T10:46:20;9.27;;;3.28;;
51467;SDS011;37545;45.302;-122.946;2022-08-18T10:48:58;6.68;;;2.67;;
51467;SDS011;37545;45.302;-122.946;2022-08-18T10:51:42;4.22;;;2.70;;
51467;SDS011;37545;45.302;-122.946;2022-08-18T10:54:24;7.93;;;2.90;;
51467;SDS011;37545;45.302;-122.946;2022-08-18T10:57:07;8.23;;;2.90;;
51467;SDS011;37545;45.302;-122.946;2022-08-18T10:59:41;5.20;;;2.58;;
51467;SDS011;37545;45.302;-122.946;2022-08-18T11:02:30;5.15;;;2.78;;
51467;SDS011;37545;45.302;-122.946;2022-08-18T11:05:12;9.82;;;2.75;;
51467;SDS011;37545;45.302;-122.946;2022-08-18T11:07:45;5.95;;;2.70;;
51467;SDS011;37545;45.302;-122.946;2022-08-18T11:10:16;10.07;;;2.67;;
51467;SDS011;37545;45.302;-122.946;2022-08-18T11:12:57;6.47;;;3.03;;
51467;SDS011;37545;45.302;-122.946;2022-08-18T11:15:33;5.63;;;2.90;;
51467;SDS011;37545;45.302;-122.946;2022-08-18T11:18:23;8.48;;;3.50;;
51467;SDS011;37545;45.302;-122.946;2022-08-18T11:24:08;11.98;;;3.15;;
51467;SDS011;37545;45.302;-122.946;2022-08-18T11:29:22;6.18;;;2.72;;
51467;SDS011;37545;45.302;-122.946;2022-08-18T11:31:59;4.35;;;2.60;;
51467;SDS011;37545;45.302;-122.946;2022-08-18T11:34:34;3.58;;;2.53;;
51467;SDS011;37545;45.302;-122.946;2022-08-18T11:37:07;7.32;;;2.60;;
51467;SDS011;37545;45.302;-122.946;2022-08-18T11:39:48;4.93;;;2.60;;
51467;SDS011;37545;45.302;-122.946;2022-08-18T11:42:19;8.85;;;2.92;;
51467;SDS011;37545;45.302;-122.946;2022-08-18T11:44:54;4.25;;;2.70;;
51467;SDS011;37545;45.302;-122.946;2022-08-18T11:47:31;5.47;;;2.85;;
51467;SDS011;37545;45.302;-122.946;2022-08-18T11:50:05;6.72;;;3.00;;
51467;SDS011;37545;45.302;-122.946;2022-08-18T11:52:49;8.05;;;3.05;;
51467;SDS011;37545;45.302;-122.946;2022-08-18T11:55:27;6.93;;;2.90;;
51467;SDS011;37545;45.302;-122.946;2022-08-18T11:57:58;6.10;;;2.95;;
51467;SDS011;37545;45.302;-122.946;2022-08-18T12:00:37;9.27;;;2.60;;
51467;SDS011;37545;45.302;-122.946;2022-08-18T12:03:28;6.53;;;2.65;;
51467;SDS011;37545;45.302;-122.946;2022-08-18T12:06:10;6.53;;;2.95;;
51467;SDS011;37545;45.302;-122.946;2022-08-18T12:08:50;8.80;;;3.05;;
51467;SDS011;37545;45.302;-122.946;2022-08-18T12:11:22;8.07;;;3.08;;
51467;SDS011;37545;45.302;-122.946;2022-08-18T12:13:59;7.13;;;2.92;;
51467;SDS011;37545;45.302;-122.946;2022-08-18T12:16:31;7.05;;;3.08;;
51467;SDS011;37545;45.302;-122.946;2022-08-18T12:19:02;6.25;;;2.88;;
51467;SDS011;37545;45.302;-122.946;2022-08-18T12:21:31;3.88;;;2.30;;
51467;SDS011;37545;45.302;-122.946;2022-08-18T12:24:02;7.35;;;2.70;;
51467;SDS011;37545;45.302;-122.946;2022-08-18T12:26:31;6.13;;;3.03;;
51467;SDS011;37545;45.302;-122.946;2022-08-18T12:29:00;8.38;;;3.20;;
51467;SDS011;37545;45.302;-122.946;2022-08-18T12:31:28;6.68;;;2.80;;
51467;SDS011;37545;45.302;-122.946;2022-08-18T12:33:57;7.07;;;2.70;;
51467;SDS011;37545;45.302;-122.946;2022-08-18T12:36:25;8.38;;;3.08;;
51467;SDS011;37545;45.302;-122.946;2022-08-18T12:38:55;5.55;;;2.92;;
51467;SDS011;37545;45.302;-122.946;2022-08-18T12:41:26;5.70;;;3.00;;
51467;SDS011;37545;45.302;-122.946;2022-08-18T12:43:54;6.15;;;2.97;;
51467;SDS011;37545;45.302;-122.946;2022-08-18T12:46:23;6.00;;;3.03;;
51467;SDS011;37545;45.302;-122.946;2022-08-18T12:48:52;5.78;;;2.80;;
51467;SDS011;37545;45.302;-122.946;2022-08-18T12:51:20;5.60;;;2.85;;
51467;SDS011;37545;45.302;-122.946;2022-08-18T12:53:49;7.05;;;3.40;;
51467;SDS011;37545;45.302;-122.946;2022-08-18T12:56:19;8.70;;;3.33;;
51467;SDS011;37545;45.302;-122.946;2022-08-18T12:58:51;7.70;;;3.35;;
51467;SDS011;37545;45.302;-122.946;2022-08-18T13:01:20;7.97;;;2.85;;
51467;SDS011;37545;45.302;-122.946;2022-08-18T13:03:49;5.60;;;2.80;;
51467;SDS011;37545;45.302;-122.946;2022-08-18T13:06:20;7.18;;;2.83;;
51467;SDS011;37545;45.302;-122.946;2022-08-18T13:08:49;5.38;;;2.90;;
51467;SDS011;37545;45.302;-122.946;2022-08-18T13:11:20;8.38;;;2.85;;
51467;SDS011;37545;45.302;-122.946;2022-08-18T13:13:51;4.00;;;2.58;;
51467;SDS011;37545;45.302;-122.946;2022-08-18T13:16:20;5.70;;;2.97;;
51467;SDS011;37545;45.302;-122.946;2022-08-18T13:18:49;6.97;;;2.75;;
51467;SDS011;37545;45.302;-122.946;2022-08-18T13:21:18;6.38;;;2.60;;
51467;SDS011;37545;45.302;-122.946;2022-08-18T13:23:47;8.98;;;4.32;;
51467;SDS011;37545;45.302;-122.946;2022-08-18T13:26:27;7.95;;;2.72;;
51467;SDS011;37545;45.302;-122.946;2022-08-18T13:28:59;9.85;;;2.63;;
51467;SDS011;37545;45.302;-122.946;2022-08-18T13:31:27;5.05;;;2.45;;
51467;SDS011;37545;45.302;-122.946;2022-08-18T13:33:57;3.65;;;2.40;;
51467;SDS011;37545;45.302;-122.946;2022-08-18T13:36:27;6.00;;;2.33;;
51467;SDS011;37545;45.302;-122.946;2022-08-18T13:39:09;9.68;;;3.00;;
51467;SDS011;37545;45.302;-122.946;2022-08-18T13:41:38;6.85;;;2.33;;
51467;SDS011;37545;45.302;-122.946;2022-08-18T13:44:10;4.90;;;2.45;;
51467;SDS011;37545;45.302;-122.946;2022-08-18T13:46:40;4.55;;;2.30;;
51467;SDS011;37545;45.302;-122.946;2022-08-18T13:49:11;5.00;;;2.50;;
51467;SDS011;37545;45.302;-122.946;2022-08-18T13:51:40;5.90;;;2.58;;
51467;SDS011;37545;45.302;-122.946;2022-08-18T13:54:12;5.72;;;2.50;;
51467;SDS011;37545;45.302;-122.946;2022-08-18T13:56:46;5.88;;;2.58;;
51467;SDS011;37545;45.302;-122.946;2022-08-18T13:59:16;5.93;;;2.40;;
51467;SDS011;37545;45.302;-122.946;2022-08-18T14:01:46;4.35;;;2.20;;
51467;SDS011;37545;45.302;-122.946;2022-08-18T14:04:14;3.88;;;2.40;;
51467;SDS011;37545;45.302;-122.946;2022-08-18T14:06:43;7.32;;;2.75;;
51467;SDS011;37545;45.302;-122.946;2022-08-18T14:09:11;8.18;;;2.75;;
51467;SDS011;37545;45.302;-122.946;2022-08-18T14:11:40;6.78;;;2.33;;
51467;SDS011;37545;45.302;-122.946;2022-08-18T14:14:08;6.88;;;2.38;;
51467;SDS011;37545;45.302;-122.946;2022-08-18T14:16:39;6.57;;;2.53;;
51467;SDS011;37545;45.302;-122.946;2022-08-18T14:19:07;5.35;;;2.22;;
51467;SDS011;37545;45.302;-122.946;2022-08-18T14:21:59;3.40;;;2.30;;
51467;SDS011;37545;45.302;-122.946;2022-08-18T14:24:44;4.50;;;2.53;;
51467;SDS011;37545;45.302;-122.946;2022-08-18T14:27:30;4.15;;;2.17;;
51467;SDS011;37545;45.302;-122.946;2022-08-18T14:30:00;5.97;;;2.38;;
51467;SDS011;37545;45.302;-122.946;2022-08-18T14:32:32;3.78;;;2.50;;
51467;SDS011;37545;45.302;-122.946;2022-08-18T14:35:02;5.88;;;2.80;;
51467;SDS011;37545;45.302;-122.946;2022-08-18T14:37:32;6.50;;;2.88;;
51467;SDS011;37545;45.302;-122.946;2022-08-18T14:40:01;7.90;;;2.85;;
51467;SDS011;37545;45.302;-122.946;2022-08-18T14:42:30;4.72;;;2.30;;
51467;SDS011;37545;45.302;-122.946;2022-08-18T14:44:58;12.23;;;2.75;;
51467;SDS011;37545;45.302;-122.946;2022-08-18T14:47:27;4.90;;;2.80;;
51467;SDS011;37545;45.302;-122.946;2022-08-18T14:49:57;4.28;;;2.78;;
51467;SDS011;37545;45.302;-122.946;2022-08-18T14:52:26;7.88;;;3.05;;
51467;SDS011;37545;45.302;-122.946;2022-08-18T14:54:54;9.20;;;3.10;;
51467;SDS011;37545;45.302;-122.946;2022-08-18T14:57:23;6.10;;;2.95;;
51467;SDS011;37545;45.302;-122.946;2022-08-18T14:59:52;6.72;;;2.40;;
51467;SDS011;37545;45.302;-122.946;2022-08-18T15:02:20;6.55;;;2.88;;
51467;SDS011;37545;45.302;-122.946;2022-08-18T15:04:49;9.00;;;3.50;;
51467;SDS011;37545;45.302;-122.946;2022-08-18T15:07:19;10.05;;;3.05;;
51467;SDS011;37545;45.302;-122.946;2022-08-18T15:09:49;10.52;;;3.20;;
51467;SDS011;37545;45.302;-122.946;2022-08-18T15:12:24;6.25;;;3.20;;
51467;SDS011;37545;45.302;-122.946;2022-08-18T15:14:53;6.43;;;2.83;;
51467;SDS011;37545;45.302;-122.946;2022-08-18T15:17:25;8.40;;;3.40;;
51467;SDS011;37545;45.302;-122.946;2022-08-18T15:19:53;10.73;;;3.60;;
51467;SDS011;37545;45.302;-122.946;2022-08-18T15:22:23;7.30;;;3.10;;
51467;SDS011;37545;45.302;-122.946;2022-08-18T15:25:09;12.05;;;3.42;;